createdAt,value
2018-02-18T00:01:42.524Z,101871.28
2018-02-18T00:04:10.336Z,101879.62
2018-02-18T00:06:37.877Z,101881.64
2018-02-18T00:09:05.414Z,101885.78
2018-02-18T00:11:33.048Z,101882.20
2018-02-18T00:14:00.594Z,101886.50
2018-02-18T00:16:28.127Z,101887.27
2018-02-18T00:18:55.727Z,101887.05
2018-02-18T00:21:23.277Z,101893.71
2018-02-18T00:23:50.827Z,101891.48
2018-02-18T00:26:18.384Z,101896.43
2018-02-18T00:28:45.917Z,101899.41
2018-02-18T00:31:13.530Z,101898.14
2018-02-18T00:33:41.076Z,101897.87
2018-02-18T00:36:08.614Z,101896.02
2018-02-18T00:38:36.342Z,101896.20
2018-02-18T00:41:03.910Z,101897.03
2018-02-18T00:43:31.466Z,101898.66
2018-02-18T00:45:59.013Z,101900.67
2018-02-18T00:48:26.613Z,101894.16
2018-02-18T00:50:54.233Z,101894.80
2018-02-18T00:53:21.784Z,101893.80
2018-02-18T00:55:49.340Z,101890.83
2018-02-18T00:58:16.895Z,101897.02
2018-02-18T01:00:44.458Z,101898.33
2018-02-18T01:03:12.011Z,101896.33
2018-02-18T01:05:39.614Z,101893.54
2018-02-18T01:08:07.183Z,101891.34
2018-02-18T01:10:34.739Z,101881.50
2018-02-18T01:13:02.315Z,101884.03
2018-02-18T01:15:29.892Z,101875.74
2018-02-18T01:17:57.450Z,101891.84
2018-02-18T01:20:25.019Z,101888.75
2018-02-18T01:22:52.547Z,101901.83
2018-02-18T01:25:20.115Z,101900.96
2018-02-18T01:27:47.659Z,101901.33
2018-02-18T01:30:15.206Z,101907.70
2018-02-18T01:32:42.840Z,101908.17
2018-02-18T01:35:10.372Z,101901.55
2018-02-18T01:37:37.927Z,101891.88
2018-02-18T01:40:05.502Z,101898.19
2018-02-18T01:42:33.072Z,101896.98
2018-02-18T01:45:00.605Z,101901.44
2018-02-18T01:47:28.189Z,101900.58
2018-02-18T01:49:55.729Z,101896.38
2018-02-18T01:52:23.251Z,101900.96
2018-02-18T01:54:50.822Z,101896.30
2018-02-18T01:57:18.455Z,101892.90
2018-02-18T01:59:46.007Z,101894.51
2018-02-18T02:02:13.547Z,101888.75
2018-02-18T02:04:41.127Z,101892.61
2018-02-18T02:07:08.665Z,101882.82
2018-02-18T02:09:36.189Z,101884.67
2018-02-18T02:12:03.786Z,101881.70
2018-02-18T02:14:31.407Z,101879.06
2018-02-18T02:16:58.978Z,101878.70
2018-02-18T02:19:26.540Z,101869.41
2018-02-18T02:21:54.117Z,101874.18
2018-02-18T02:24:21.667Z,101871.50
2018-02-18T02:26:49.188Z,101868.06
2018-02-18T02:29:16.759Z,101872.11
2018-02-18T02:31:44.310Z,101868.98
2018-02-18T02:34:11.885Z,101863.66
2018-02-18T02:36:39.439Z,101869.06
2018-02-18T02:39:06.995Z,101870.34
2018-02-18T02:41:34.542Z,101872.66
2018-02-18T02:44:02.144Z,101874.94
2018-02-18T02:46:29.677Z,101876.55
2018-02-18T02:48:57.226Z,101880.97
2018-02-18T02:51:24.838Z,101871.58
2018-02-18T02:53:52.371Z,101877.41
2018-02-18T02:56:20.024Z,101880.91
2018-02-18T02:58:47.674Z,101874.66
2018-02-18T03:01:15.236Z,101884.95
2018-02-18T03:03:42.835Z,101879.89
2018-02-18T03:06:10.501Z,101883.20
2018-02-18T03:08:38.060Z,101885.34
2018-02-18T03:11:05.607Z,101879.48
2018-02-18T03:13:33.206Z,101872.23
2018-02-18T03:16:00.750Z,101878.56
2018-02-18T03:18:28.291Z,101868.24
2018-02-18T03:20:55.839Z,101868.59
2018-02-18T03:23:23.365Z,101869.67
2018-02-18T03:25:50.944Z,101865.02
2018-02-18T03:28:18.487Z,101869.27
2018-02-18T03:30:46.032Z,101871.02
2018-02-18T03:33:13.645Z,101873.05
2018-02-18T03:35:41.213Z,101872.39
2018-02-18T03:38:08.731Z,101863.16
2018-02-18T03:40:36.331Z,101862.89
2018-02-18T03:43:03.895Z,101863.36
2018-02-18T03:45:31.442Z,101858.94
2018-02-18T03:47:58.981Z,101856.45
2018-02-18T03:50:26.581Z,101853.27
2018-02-18T03:52:54.141Z,101855.09
2018-02-18T03:55:21.671Z,101855.33
2018-02-18T03:57:49.231Z,101858.25
2018-02-18T04:00:16.813Z,101863.56
2018-02-18T04:02:44.354Z,101877.89
2018-02-18T04:05:11.927Z,101878.66
2018-02-18T04:07:39.482Z,101873.03
2018-02-18T04:10:07.021Z,101873.58
2018-02-18T04:12:34.771Z,101876.28
2018-02-18T04:15:02.338Z,101868.91
2018-02-18T04:17:29.878Z,101877.60
2018-02-18T04:19:57.481Z,101878.77
2018-02-18T04:22:25.034Z,101878.51
2018-02-18T04:24:52.633Z,101888.20
2018-02-18T04:27:20.192Z,101889.06
2018-02-18T04:29:47.748Z,101881.47
2018-02-18T04:32:15.286Z,101882.39
2018-02-18T04:34:42.836Z,101881.48
2018-02-18T04:37:10.387Z,101876.92
2018-02-18T04:39:37.979Z,101878.91
2018-02-18T04:42:05.522Z,101880.22
2018-02-18T04:44:33.082Z,101888.59
2018-02-18T04:47:00.631Z,101898.58
2018-02-18T04:49:28.188Z,101896.34
2018-02-18T04:51:55.833Z,101893.12
2018-02-18T04:54:23.396Z,101891.88
2018-02-18T04:56:50.966Z,101887.90
2018-02-18T04:59:18.527Z,101885.66
2018-02-18T05:01:46.052Z,101881.55
2018-02-18T05:04:13.748Z,101883.84
2018-02-18T05:06:41.306Z,101880.97
2018-02-18T05:09:08.907Z,101883.96
2018-02-18T05:11:36.435Z,101886.06
2018-02-18T05:14:03.993Z,101882.09
2018-02-18T05:16:31.600Z,101875.56
2018-02-18T05:18:59.147Z,101880.44
2018-02-18T05:21:26.711Z,101877.04
2018-02-18T05:23:54.314Z,101872.92
2018-02-18T05:26:21.875Z,101881.47
2018-02-18T05:28:49.412Z,101884.28
2018-02-18T05:31:16.984Z,101883.05
2018-02-18T05:33:44.578Z,101889.14
2018-02-18T05:36:12.136Z,101889.45
2018-02-18T05:38:39.744Z,101891.83
2018-02-18T05:41:08.226Z,101887.09
2018-02-18T05:43:35.788Z,101882.00
2018-02-18T05:46:03.381Z,101884.09
2018-02-18T05:48:30.911Z,101879.17
2018-02-18T05:50:58.506Z,101874.52
2018-02-18T05:53:26.103Z,101864.55
2018-02-18T05:55:53.647Z,101867.70
2018-02-18T05:58:21.185Z,101869.98
2018-02-18T06:00:48.752Z,101872.58
2018-02-18T06:03:16.296Z,101872.02
2018-02-18T06:05:43.898Z,101867.91
2018-02-18T06:08:11.455Z,101873.51
2018-02-18T06:10:39.012Z,101874.60
2018-02-18T06:13:06.598Z,101876.72
2018-02-18T06:15:34.176Z,101876.76
2018-02-18T06:18:01.710Z,101878.56
2018-02-18T06:20:29.242Z,101883.39
2018-02-18T06:22:56.787Z,101881.47
2018-02-18T06:25:24.541Z,101877.39
2018-02-18T06:27:52.167Z,101885.19
2018-02-18T06:30:19.703Z,101885.68
2018-02-18T06:32:47.300Z,101877.69
2018-02-18T06:35:14.857Z,101878.72
2018-02-18T06:37:42.413Z,101881.47
2018-02-18T06:40:10.045Z,101876.18
2018-02-18T06:42:37.713Z,101875.91
2018-02-18T06:45:05.259Z,101876.50
2018-02-18T06:47:32.836Z,101875.30
2018-02-18T06:50:00.385Z,101868.70
2018-02-18T06:52:27.945Z,101868.30
2018-02-18T06:54:55.522Z,101864.14
2018-02-18T06:57:23.068Z,101865.98
2018-02-18T06:59:50.708Z,101860.98
2018-02-18T07:02:18.255Z,101871.42
2018-02-18T07:04:45.798Z,101871.59
2018-02-18T07:07:13.378Z,101871.27
2018-02-18T07:09:40.929Z,101877.11
2018-02-18T07:12:08.525Z,101871.60
2018-02-18T07:14:36.075Z,101868.40
2018-02-18T07:17:03.604Z,101877.25
2018-02-18T07:19:31.172Z,101879.78
2018-02-18T07:21:58.724Z,101882.09
2018-02-18T07:24:26.260Z,101876.75
2018-02-18T07:26:53.827Z,101878.26
2018-02-18T07:29:21.407Z,101875.27
2018-02-18T07:31:48.970Z,101874.22
2018-02-18T07:34:17.546Z,101875.31
2018-02-18T07:36:45.495Z,101874.30
2018-02-18T07:39:13.026Z,101869.11
2018-02-18T07:41:40.575Z,101875.03
2018-02-18T07:44:08.148Z,101880.04
2018-02-18T07:46:35.667Z,101882.72
2018-02-18T07:49:03.244Z,101883.80
2018-02-18T07:51:30.795Z,101873.64
2018-02-18T07:53:58.389Z,101877.30
2018-02-18T07:56:25.967Z,101875.75
2018-02-18T07:58:53.516Z,101875.00
2018-02-18T08:01:21.107Z,101876.89
2018-02-18T08:03:48.688Z,101872.73
2018-02-18T08:06:16.264Z,101873.84
2018-02-18T08:08:43.800Z,101871.80
2018-02-18T08:11:11.413Z,101874.34
2018-02-18T08:13:38.970Z,101878.76
2018-02-18T08:16:06.498Z,101881.84
2018-02-18T08:18:34.066Z,101884.81
2018-02-18T08:21:01.628Z,101885.22
2018-02-18T08:23:29.225Z,101882.66
2018-02-18T08:25:56.763Z,101884.30
2018-02-18T08:28:24.313Z,101882.53
2018-02-18T08:30:51.868Z,101881.59
2018-02-18T08:33:19.436Z,101872.25
2018-02-18T08:35:46.964Z,101875.05
2018-02-18T08:38:14.685Z,101876.65
2018-02-18T08:40:42.219Z,101884.27
2018-02-18T08:43:09.767Z,101877.85
2018-02-18T08:45:37.388Z,101876.86
2018-02-18T08:48:04.932Z,101877.86
2018-02-18T08:50:32.513Z,101870.64
2018-02-18T08:53:00.434Z,101869.48
2018-02-18T08:55:28.022Z,101870.27
2018-02-18T08:57:55.611Z,101868.20
2018-02-18T09:00:23.145Z,101866.10
2018-02-18T09:02:50.742Z,101862.93
2018-02-18T09:05:18.331Z,101863.91
2018-02-18T09:07:45.851Z,101861.55
2018-02-18T09:10:13.424Z,101862.23
2018-02-18T09:12:41.011Z,101868.83
2018-02-18T09:15:08.565Z,101865.75
2018-02-18T09:17:36.102Z,101869.56
2018-02-18T09:20:03.661Z,101869.73
2018-02-18T09:22:31.206Z,101870.59
2018-02-18T09:24:58.792Z,101868.66
2018-02-18T09:27:26.318Z,101872.30
2018-02-18T09:29:53.833Z,101871.16
2018-02-18T09:32:21.399Z,101872.30
2018-02-18T09:34:48.987Z,101873.85
2018-02-18T09:37:16.528Z,101868.93
2018-02-18T09:39:44.052Z,101863.50
2018-02-18T09:42:11.616Z,101867.64
2018-02-18T09:44:39.160Z,101871.00
2018-02-18T09:47:06.684Z,101866.63
2018-02-18T09:49:34.266Z,101878.11
2018-02-18T09:52:01.793Z,101878.20
2018-02-18T09:54:29.316Z,101878.44
2018-02-18T09:56:56.868Z,101884.11
2018-02-18T09:59:24.398Z,101880.19
2018-02-18T10:01:51.945Z,101877.44
2018-02-18T10:04:19.510Z,101877.34
2018-02-18T10:06:47.077Z,101879.46
2018-02-18T10:09:14.630Z,101877.97
2018-02-18T10:11:42.191Z,101877.06
2018-02-18T10:14:09.757Z,101878.86
2018-02-18T10:16:37.297Z,101878.98
2018-02-18T10:19:04.893Z,101876.75
2018-02-18T10:21:32.431Z,101881.48
2018-02-18T10:24:00.037Z,101885.92
2018-02-18T10:26:27.617Z,101886.20
2018-02-18T10:28:55.127Z,101887.73
2018-02-18T10:31:22.667Z,101900.18
2018-02-18T10:33:50.300Z,101895.45
2018-02-18T10:36:17.869Z,101900.06
2018-02-18T10:38:45.606Z,101896.73
2018-02-18T10:41:13.171Z,101898.86
2018-02-18T10:43:40.828Z,101893.20
2018-02-18T10:46:08.436Z,101895.64
2018-02-18T10:48:35.974Z,101883.78
2018-02-18T10:51:03.515Z,101892.16
2018-02-18T10:53:31.131Z,101885.20
2018-02-18T10:55:58.689Z,101884.11
2018-02-18T10:58:26.207Z,101881.23
2018-02-18T11:00:53.842Z,101885.66
2018-02-18T11:03:21.363Z,101885.98
2018-02-18T11:05:49.139Z,101888.56
2018-02-18T11:08:16.665Z,101887.37
2018-02-18T11:10:44.206Z,101879.39
2018-02-18T11:13:11.785Z,101880.52
2018-02-18T11:15:39.305Z,101879.15
2018-02-18T11:18:06.820Z,101881.64
2018-02-18T11:20:34.375Z,101868.61
2018-02-18T11:23:01.951Z,101868.52
2018-02-18T11:25:29.483Z,101866.58
2018-02-18T11:27:57.081Z,101862.45
2018-02-18T11:30:24.634Z,101852.14
2018-02-18T11:32:52.254Z,101852.84
2018-02-18T11:35:19.804Z,101849.45
2018-02-18T11:37:47.335Z,101854.64
2018-02-18T11:40:14.935Z,101849.20
2018-02-18T11:42:42.557Z,101844.40
2018-02-18T11:45:10.090Z,101837.13
2018-02-18T11:47:37.654Z,101840.51
2018-02-18T11:50:05.216Z,101837.59
2018-02-18T11:52:32.794Z,101839.38
2018-02-18T11:55:00.337Z,101837.16
2018-02-18T11:57:27.875Z,101833.70
2018-02-18T11:59:55.453Z,101829.73
2018-02-18T12:02:23.063Z,101824.94
2018-02-18T12:04:50.584Z,101825.38
2018-02-18T12:07:18.148Z,101819.44
2018-02-18T12:09:45.754Z,101816.50
2018-02-18T12:12:13.292Z,101817.19
2018-02-18T12:14:40.841Z,101815.66
2018-02-18T12:17:08.421Z,101809.78
2018-02-18T12:19:36.091Z,101805.52
2018-02-18T12:22:03.697Z,101798.78
2018-02-18T12:24:31.355Z,101800.20
2018-02-18T12:26:58.882Z,101797.22
2018-02-18T12:29:26.414Z,101791.71
2018-02-18T12:31:54.007Z,101793.94
2018-02-18T12:34:21.534Z,101790.04
2018-02-18T12:36:49.066Z,101788.94
2018-02-18T12:39:16.644Z,101785.61
2018-02-18T12:41:44.166Z,101788.31
2018-02-18T12:44:11.724Z,101786.37
2018-02-18T12:46:39.277Z,101786.17
2018-02-18T12:49:06.800Z,101779.41
2018-02-18T12:51:34.422Z,101777.48
2018-02-18T12:54:01.987Z,101779.87
2018-02-18T12:56:29.544Z,101774.66
2018-02-18T12:58:57.197Z,101767.77
2018-02-18T13:01:26.594Z,101768.72
2018-02-18T13:03:54.864Z,101764.44
2018-02-18T13:06:22.498Z,101760.80
2018-02-18T13:08:50.020Z,101763.88
2018-02-18T13:11:17.587Z,101758.24
2018-02-18T13:13:45.165Z,101763.33
2018-02-18T13:16:12.736Z,101770.28
2018-02-18T13:18:40.276Z,101775.13
2018-02-18T13:21:07.834Z,101772.86
2018-02-18T13:23:35.379Z,101771.55
2018-02-18T13:26:02.947Z,101770.06
2018-02-18T13:28:30.492Z,101765.63
2018-02-18T13:30:58.119Z,101767.94
2018-02-18T13:33:25.690Z,101771.30
2018-02-18T13:35:53.232Z,101763.57
2018-02-18T13:38:20.783Z,101763.72
2018-02-18T13:40:48.444Z,101764.99
2018-02-18T13:43:16.005Z,101761.59
2018-02-18T13:45:43.573Z,101758.25
2018-02-18T13:48:11.106Z,101760.23
2018-02-18T13:50:38.678Z,101756.63
2018-02-18T13:53:06.382Z,101753.81
2018-02-18T13:55:34.055Z,101745.99
2018-02-18T13:58:01.680Z,101750.11
2018-02-18T14:00:29.285Z,101751.64
2018-02-18T14:02:56.828Z,101756.80
2018-02-18T14:05:24.376Z,101756.32
2018-02-18T14:07:51.935Z,101760.15
2018-02-18T14:10:19.482Z,101759.63
2018-02-18T14:12:47.043Z,101754.48
2018-02-18T14:15:14.654Z,101752.01
2018-02-18T14:17:42.199Z,101745.78
2018-02-18T14:20:09.769Z,101751.45
2018-02-18T14:22:37.417Z,101747.87
2018-02-18T14:25:04.991Z,101745.03
2018-02-18T14:27:32.540Z,101744.76
2018-02-18T14:30:00.137Z,101748.23
2018-02-18T14:32:27.686Z,101732.78
2018-02-18T14:34:55.213Z,101738.33
2018-02-18T14:37:22.903Z,101739.43
2018-02-18T14:39:50.462Z,101739.67
2018-02-18T14:42:29.847Z,101735.90
2018-02-18T14:45:09.409Z,101737.16
2018-02-18T14:47:48.813Z,101733.45
2018-02-18T14:50:28.189Z,101729.69
2018-02-18T14:53:07.593Z,101731.66
2018-02-18T14:58:36.963Z,101725.05
2018-02-18T15:01:04.688Z,101729.75
2018-02-18T15:03:32.271Z,101727.70
2018-02-18T15:05:59.888Z,101727.80
2018-02-18T15:08:27.420Z,101724.20
2018-02-18T15:10:55.072Z,101725.67
2018-02-18T15:13:22.651Z,101722.95
2018-02-18T15:15:50.210Z,101718.94
2018-02-18T15:18:17.825Z,101723.16
2018-02-18T15:20:45.389Z,101720.25
2018-02-18T15:23:13.044Z,101714.11
2018-02-18T15:25:40.581Z,101720.59
2018-02-18T15:28:08.476Z,101721.55
2018-02-18T15:30:36.171Z,101715.39
2018-02-18T15:33:03.745Z,101719.28
2018-02-18T15:35:31.284Z,101718.56
2018-02-18T15:37:59.038Z,101714.62
2018-02-18T15:40:26.619Z,101714.69
2018-02-18T15:42:54.176Z,101707.48
2018-02-18T15:45:21.712Z,101709.71
2018-02-18T15:47:49.333Z,101702.81
2018-02-18T15:50:16.887Z,101706.78
2018-02-18T15:52:44.456Z,101703.83
2018-02-18T15:55:12.003Z,101702.53
2018-02-18T15:57:39.774Z,101700.98
2018-02-18T16:00:07.415Z,101698.60
2018-02-18T16:02:35.012Z,101693.70
2018-02-18T16:05:02.582Z,101688.42
2018-02-18T16:07:30.143Z,101689.09
2018-02-18T16:09:57.733Z,101694.48
2018-02-18T16:12:25.268Z,101689.72
2018-02-18T16:14:52.877Z,101692.62
2018-02-18T16:17:20.454Z,101692.17
2018-02-18T16:19:48.058Z,101696.03
2018-02-18T16:22:15.781Z,101691.80
2018-02-18T16:24:43.411Z,101685.55
2018-02-18T16:27:10.979Z,101688.67
2018-02-18T16:29:38.519Z,101690.92
2018-02-18T16:32:06.511Z,101680.80
2018-02-18T16:34:34.110Z,101691.84
2018-02-18T16:37:01.681Z,101693.40
2018-02-18T16:39:29.249Z,101708.20
2018-02-18T16:41:56.790Z,101708.24
2018-02-18T16:44:24.405Z,101698.73
2018-02-18T16:46:51.943Z,101700.07
2018-02-18T16:49:19.459Z,101702.91
2018-02-18T16:51:47.142Z,101698.36
2018-02-18T16:54:14.724Z,101705.62
2018-02-18T16:56:42.322Z,101699.78
2018-02-18T16:59:09.867Z,101700.01
2018-02-18T17:01:37.399Z,101698.41
2018-02-18T17:04:04.987Z,101697.66
2018-02-18T17:06:32.572Z,101703.46
2018-02-18T17:09:00.462Z,101699.40
2018-02-18T17:11:28.037Z,101703.76
2018-02-18T17:13:55.667Z,101710.00
2018-02-18T17:16:23.300Z,101713.02
2018-02-18T17:18:50.921Z,101714.16
2018-02-18T17:21:18.539Z,101712.78
2018-02-18T17:23:46.170Z,101720.32
2018-02-18T17:26:13.744Z,101720.81
2018-02-18T17:28:41.323Z,101719.73
2018-02-18T17:31:08.860Z,101714.70
2018-02-18T17:33:36.406Z,101711.56
2018-02-18T17:36:03.981Z,101712.23
2018-02-18T17:38:31.521Z,101707.68
2018-02-18T17:40:59.040Z,101710.98
2018-02-18T17:43:26.594Z,101699.27
2018-02-18T17:45:54.328Z,101696.84
2018-02-18T17:48:21.903Z,101694.31
2018-02-18T17:50:49.469Z,101693.09
2018-02-18T17:53:17.001Z,101694.09
2018-02-18T17:55:44.559Z,101689.50
2018-02-18T17:58:12.087Z,101686.40
2018-02-18T18:00:39.647Z,101681.07
2018-02-18T18:03:07.214Z,101682.61
2018-02-18T18:05:34.730Z,101685.20
2018-02-18T18:08:02.282Z,101683.53
2018-02-18T18:10:29.961Z,101687.48
2018-02-18T18:12:57.516Z,101690.49
2018-02-18T18:15:25.053Z,101690.06
2018-02-18T18:17:52.656Z,101687.19
2018-02-18T18:20:20.195Z,101685.44
2018-02-18T18:22:47.809Z,101686.41
2018-02-18T18:25:15.359Z,101689.55
2018-02-18T18:27:42.901Z,101685.14
2018-02-18T18:30:10.477Z,101685.02
2018-02-18T18:32:38.056Z,101675.35
2018-02-18T18:35:05.800Z,101676.62
2018-02-18T18:37:33.349Z,101681.80
2018-02-18T18:40:00.961Z,101686.94
2018-02-18T18:42:28.524Z,101683.95
2018-02-18T18:44:56.820Z,101682.69
2018-02-18T18:47:25.057Z,101678.06
2018-02-18T18:49:52.671Z,101672.88
2018-02-18T18:52:20.191Z,101666.73
2018-02-18T18:54:47.763Z,101663.09
2018-02-18T18:57:15.361Z,101655.31
2018-02-18T18:59:42.942Z,101660.92
2018-02-18T19:02:10.483Z,101654.44
2018-02-18T19:04:38.075Z,101652.80
2018-02-18T19:07:05.629Z,101655.55
2018-02-18T19:09:33.198Z,101656.64
2018-02-18T19:12:00.859Z,101659.25
2018-02-18T19:14:28.494Z,101655.45
2018-02-18T19:16:56.081Z,101656.71
2018-02-18T19:19:23.659Z,101663.98
2018-02-18T19:21:51.184Z,101658.78
2018-02-18T19:24:18.710Z,101657.08
2018-02-18T19:26:46.272Z,101649.56
2018-02-18T19:29:13.827Z,101655.51
2018-02-18T19:31:41.381Z,101649.12
2018-02-18T19:34:08.956Z,101655.77
2018-02-18T19:36:36.503Z,101653.04
2018-02-18T19:39:04.116Z,101650.97
2018-02-18T19:41:31.647Z,101649.79
2018-02-18T19:43:59.216Z,101660.80
2018-02-18T19:46:27.323Z,101656.30
2018-02-18T19:48:54.915Z,101649.99
2018-02-18T19:51:22.508Z,101649.19
2018-02-18T19:53:50.995Z,101636.61
2018-02-18T19:56:18.575Z,101633.42
2018-02-18T19:58:46.170Z,101633.41
2018-02-18T20:01:13.692Z,101629.30
2018-02-18T20:03:41.274Z,101628.27
2018-02-18T20:06:08.877Z,101621.24
2018-02-18T20:08:36.445Z,101619.14
2018-02-18T20:11:03.988Z,101616.23
2018-02-18T20:13:31.590Z,101621.69
2018-02-18T20:15:59.160Z,101626.74
2018-02-18T20:18:26.697Z,101620.95
2018-02-18T20:20:54.286Z,101624.84
2018-02-18T20:23:21.851Z,101626.45
2018-02-18T20:25:49.389Z,101633.69
2018-02-18T20:28:16.931Z,101632.08
2018-02-18T20:30:44.496Z,101637.12
2018-02-18T20:33:12.116Z,101626.59
2018-02-18T20:35:39.653Z,101612.27
2018-02-18T20:38:07.180Z,101610.95
2018-02-18T20:40:34.780Z,101617.98
2018-02-18T20:43:02.327Z,101612.06
2018-02-18T20:45:29.863Z,101605.31
2018-02-18T20:47:57.512Z,101606.32
2018-02-18T20:50:25.041Z,101599.74
2018-02-18T20:52:52.576Z,101602.44
2018-02-18T20:55:20.116Z,101606.34
2018-02-18T20:57:47.659Z,101607.95
2018-02-18T21:00:15.505Z,101598.80
2018-02-18T21:02:43.210Z,101600.89
2018-02-18T21:05:10.748Z,101600.74
2018-02-18T21:07:38.338Z,101598.14
2018-02-18T21:10:05.879Z,101592.20
2018-02-18T21:12:33.444Z,101591.96
2018-02-18T21:15:01.048Z,101584.78
2018-02-18T21:17:28.600Z,101583.27
2018-02-18T21:19:56.152Z,101586.97
2018-02-18T21:22:23.730Z,101588.45
2018-02-18T21:24:51.256Z,101590.42
2018-02-18T21:27:18.847Z,101587.39
2018-02-18T21:29:46.379Z,101593.72
2018-02-18T21:32:13.929Z,101594.34
2018-02-18T21:34:42.378Z,101589.80
2018-02-18T21:37:09.972Z,101589.63
2018-02-18T21:39:37.523Z,101589.01
2018-02-18T21:42:05.107Z,101588.52
2018-02-18T21:44:32.646Z,101585.79
2018-02-18T21:47:00.181Z,101591.78
2018-02-18T21:49:27.762Z,101587.48
2018-02-18T21:51:55.316Z,101583.79
2018-02-18T21:54:22.882Z,101583.00
2018-02-18T21:56:50.419Z,101584.05
2018-02-18T21:59:18.067Z,101584.11
2018-02-18T22:01:45.621Z,101587.38
2018-02-18T22:04:13.145Z,101586.27
2018-02-18T22:06:40.745Z,101587.11
2018-02-18T22:09:08.233Z,101585.08
2018-02-18T22:11:35.789Z,101586.90
2018-02-18T22:14:03.329Z,101590.42
2018-02-18T22:16:30.875Z,101587.20
2018-02-18T22:18:58.423Z,101590.22
2018-02-18T22:21:25.994Z,101586.33
2018-02-18T22:23:53.557Z,101581.36
2018-02-18T22:26:21.102Z,101586.61
2018-02-18T22:28:48.673Z,101585.55
2018-02-18T22:31:16.239Z,101579.53
2018-02-18T22:33:43.768Z,101583.88
2018-02-18T22:36:11.340Z,101587.98
2018-02-18T22:38:38.941Z,101586.63
2018-02-18T22:41:06.503Z,101585.13
2018-02-18T22:43:34.031Z,101577.62
2018-02-18T22:46:01.576Z,101576.75
2018-02-18T22:48:29.102Z,101580.10
2018-02-18T22:50:56.683Z,101580.83
2018-02-18T22:53:24.214Z,101578.25
2018-02-18T22:55:51.750Z,101576.47
2018-02-18T22:58:19.319Z,101577.82
2018-02-18T23:00:47.023Z,101573.21
2018-02-18T23:03:14.539Z,101567.81
2018-02-18T23:05:47.756Z,101567.58
2018-02-18T23:08:15.338Z,101559.98
2018-02-18T23:10:42.867Z,101567.22
2018-02-18T23:13:10.432Z,101557.79
2018-02-18T23:15:37.963Z,101554.09
2018-02-18T23:18:05.562Z,101561.03
2018-02-18T23:20:44.906Z,101550.61
2018-02-18T23:23:12.459Z,101547.28
2018-02-18T23:25:40.036Z,101543.67
2018-02-18T23:28:07.577Z,101546.05
2018-02-18T23:30:35.104Z,101546.79
2018-02-18T23:33:02.669Z,101542.77
2018-02-18T23:35:30.203Z,101540.76
2018-02-18T23:37:57.719Z,101549.89
2018-02-18T23:40:25.292Z,101540.36
2018-02-18T23:42:52.812Z,101538.84
2018-02-18T23:45:21.190Z,101533.91
2018-02-18T23:47:48.918Z,101531.72
2018-02-18T23:50:16.454Z,101527.68
2018-02-18T23:52:43.994Z,101535.13
2018-02-18T23:55:11.551Z,101527.00
2018-02-18T23:57:39.091Z,101528.41
